createdAt,value
2017-07-15T00:01:29.888Z,3.07
2017-07-15T00:03:57.367Z,3.13
2017-07-15T00:06:24.875Z,3.17
2017-07-15T00:08:52.470Z,3.10
2017-07-15T00:11:19.959Z,2.80
2017-07-15T00:13:47.419Z,2.90
2017-07-15T00:16:14.827Z,3.17
2017-07-15T00:18:42.242Z,2.53
2017-07-15T00:21:09.771Z,2.50
2017-07-15T00:23:37.202Z,2.50
2017-07-15T00:26:04.639Z,2.60
2017-07-15T00:28:32.164Z,2.60
2017-07-15T00:30:59.683Z,2.57
2017-07-15T00:33:27.093Z,2.53
2017-07-15T00:35:54.586Z,2.50
2017-07-15T00:38:21.998Z,2.70
2017-07-15T00:40:49.458Z,2.80
2017-07-15T00:43:16.902Z,2.70
2017-07-15T00:45:44.306Z,3.17
2017-07-15T00:48:11.742Z,2.87
2017-07-15T00:50:39.195Z,2.70
2017-07-15T00:53:06.678Z,2.83
2017-07-15T00:55:34.082Z,2.83
2017-07-15T00:58:01.632Z,3.30
2017-07-15T01:00:29.107Z,3.50
2017-07-15T01:02:56.548Z,3.20
2017-07-15T01:05:24.055Z,3.20
2017-07-15T01:07:51.458Z,3.23
2017-07-15T01:10:18.867Z,3.53
2017-07-15T01:12:46.327Z,2.90
2017-07-15T01:15:13.829Z,2.83
2017-07-15T01:17:41.267Z,3.00
2017-07-15T01:20:08.734Z,3.00
2017-07-15T01:22:36.207Z,2.90
2017-07-15T01:25:03.713Z,2.80
2017-07-15T01:27:31.171Z,3.03
2017-07-15T01:29:58.655Z,2.80
2017-07-15T01:32:26.118Z,2.60
2017-07-15T01:34:53.652Z,3.20
2017-07-15T01:37:21.196Z,2.90
2017-07-15T01:39:48.672Z,2.47
2017-07-15T01:42:16.490Z,2.97
2017-07-15T01:44:44.086Z,2.80
2017-07-15T01:47:11.547Z,2.30
2017-07-15T01:49:39.004Z,2.73
2017-07-15T01:52:06.471Z,2.70
2017-07-15T01:54:34.013Z,2.90
2017-07-15T01:57:01.507Z,2.77
2017-07-15T01:59:29.027Z,2.90
2017-07-15T02:01:56.432Z,2.60
2017-07-15T02:04:23.900Z,2.70
2017-07-15T02:06:51.370Z,2.57
2017-07-15T02:09:18.849Z,2.77
2017-07-15T02:11:46.363Z,2.77
2017-07-15T02:14:13.831Z,2.73
2017-07-15T02:16:41.222Z,2.20
2017-07-15T02:19:08.671Z,2.50
2017-07-15T02:21:36.243Z,2.77
2017-07-15T02:24:03.798Z,2.70
2017-07-15T02:26:31.250Z,2.93
2017-07-15T02:28:58.695Z,2.80
2017-07-15T02:31:26.093Z,3.10
2017-07-15T02:33:53.604Z,3.00
2017-07-15T02:36:21.262Z,3.13
2017-07-15T02:38:48.704Z,2.90
2017-07-15T02:41:16.166Z,2.90
2017-07-15T02:43:43.610Z,2.90
2017-07-15T02:46:11.120Z,3.40
2017-07-15T02:48:38.804Z,3.37
2017-07-15T02:51:06.241Z,3.30
2017-07-15T02:53:33.647Z,2.63
2017-07-15T02:56:01.162Z,2.80
2017-07-15T02:58:28.576Z,2.90
2017-07-15T03:00:56.039Z,3.43
2017-07-15T03:03:23.506Z,3.13
2017-07-15T03:05:50.962Z,3.03
2017-07-15T03:08:18.391Z,2.80
2017-07-15T03:10:45.833Z,3.00
2017-07-15T03:13:13.263Z,2.73
2017-07-15T03:15:40.656Z,2.90
2017-07-15T03:18:08.175Z,2.83
2017-07-15T03:20:35.625Z,2.50
2017-07-15T03:23:03.103Z,2.73
2017-07-15T03:25:30.586Z,2.50
2017-07-15T03:27:58.040Z,2.57
2017-07-15T03:30:25.450Z,2.60
2017-07-15T03:32:52.921Z,3.20
2017-07-15T03:35:20.334Z,2.50
2017-07-15T03:37:47.818Z,2.60
2017-07-15T03:40:15.299Z,2.80
2017-07-15T03:42:42.714Z,3.10
2017-07-15T03:45:10.136Z,2.97
2017-07-15T03:47:37.588Z,2.63
2017-07-15T03:50:05.009Z,2.87
2017-07-15T03:52:32.414Z,2.43
2017-07-15T03:54:59.940Z,2.70
2017-07-15T03:58:16.657Z,2.70
2017-07-15T04:00:45.116Z,2.57
2017-07-15T04:03:13.479Z,2.43
2017-07-15T04:05:41.854Z,2.70
2017-07-15T04:08:10.271Z,2.80
2017-07-15T04:10:38.622Z,2.70
2017-07-15T04:13:07.019Z,2.80
2017-07-15T04:15:35.447Z,3.00
2017-07-15T04:18:03.089Z,2.70
2017-07-15T04:20:30.507Z,2.27
2017-07-15T04:22:57.958Z,2.70
2017-07-15T04:25:25.402Z,2.70
2017-07-15T04:27:52.861Z,2.90
2017-07-15T04:30:20.358Z,3.20
2017-07-15T04:32:47.786Z,2.87
2017-07-15T04:35:15.202Z,2.90
2017-07-15T04:37:42.648Z,3.27
2017-07-15T04:40:10.097Z,3.20
2017-07-15T04:42:37.588Z,3.07
2017-07-15T04:45:05.149Z,3.10
2017-07-15T04:47:32.567Z,3.07
2017-07-15T04:49:59.958Z,3.07
2017-07-15T04:52:27.476Z,3.20
2017-07-15T04:54:54.920Z,2.70
2017-07-15T04:57:22.371Z,2.87
2017-07-15T04:59:49.860Z,2.90
2017-07-15T05:02:17.262Z,2.77
2017-07-15T05:04:44.715Z,3.00
2017-07-15T05:07:12.254Z,2.80
2017-07-15T05:09:39.679Z,2.93
2017-07-15T05:12:07.172Z,2.90
2017-07-15T05:14:34.613Z,2.60
2017-07-15T05:17:02.107Z,2.93
2017-07-15T05:19:29.517Z,2.90
2017-07-15T05:21:56.978Z,2.97
2017-07-15T05:24:30.014Z,2.60
2017-07-15T05:26:57.521Z,2.40
2017-07-15T05:29:24.993Z,2.90
2017-07-15T05:31:52.549Z,3.23
2017-07-15T05:34:20.075Z,2.80
2017-07-15T05:36:47.542Z,2.57
2017-07-15T05:39:15.017Z,2.57
2017-07-15T05:41:42.584Z,3.10
2017-07-15T05:44:09.998Z,2.90
2017-07-15T05:46:37.451Z,2.90
2017-07-15T05:49:04.962Z,2.57
2017-07-15T05:51:32.460Z,2.67
2017-07-15T05:53:59.935Z,2.43
2017-07-15T05:56:27.386Z,2.83
2017-07-15T05:58:54.953Z,2.47
2017-07-15T06:01:22.506Z,2.50
2017-07-15T06:03:50.031Z,2.70
2017-07-15T06:06:17.472Z,2.80
2017-07-15T06:08:44.949Z,3.10
2017-07-15T06:11:12.456Z,3.20
2017-07-15T06:13:39.951Z,2.90
2017-07-15T06:16:07.366Z,3.00
2017-07-15T06:18:34.838Z,3.00
2017-07-15T06:21:02.343Z,3.23
2017-07-15T06:23:29.848Z,2.90
2017-07-15T06:25:57.274Z,3.03
2017-07-15T06:28:24.794Z,3.10
2017-07-15T06:30:52.284Z,3.10
2017-07-15T06:33:19.768Z,2.90
2017-07-15T06:35:47.184Z,2.80
2017-07-15T06:38:14.646Z,2.90
2017-07-15T06:40:42.164Z,2.70
2017-07-15T06:43:09.573Z,2.50
2017-07-15T06:45:37.076Z,2.60
2017-07-15T06:48:04.603Z,2.90
2017-07-15T06:50:32.041Z,2.50
2017-07-15T06:52:59.518Z,2.47
2017-07-15T06:55:26.983Z,2.60
2017-07-15T06:57:54.420Z,2.50
2017-07-15T07:00:22.268Z,2.57
2017-07-15T07:02:49.788Z,2.40
2017-07-15T07:05:17.252Z,2.83
2017-07-15T07:07:44.710Z,2.60
2017-07-15T07:10:12.971Z,3.20
2017-07-15T07:12:40.378Z,2.60
2017-07-15T07:15:07.902Z,2.77
2017-07-15T07:17:35.419Z,2.40
2017-07-15T07:20:02.890Z,2.60
2017-07-15T07:22:30.370Z,2.70
2017-07-15T07:24:57.802Z,3.00
2017-07-15T07:27:25.227Z,2.60
2017-07-15T07:29:52.644Z,2.63
2017-07-15T07:32:20.277Z,2.60
2017-07-15T07:34:47.682Z,2.63
2017-07-15T07:37:15.183Z,2.63
2017-07-15T07:39:44.873Z,2.60
2017-07-15T07:42:13.258Z,2.60
2017-07-15T07:44:41.555Z,2.43
2017-07-15T07:47:09.088Z,2.47
2017-07-15T07:49:36.554Z,2.60
2017-07-15T07:52:04.025Z,2.80
2017-07-15T07:54:32.607Z,2.30
2017-07-15T07:57:00.088Z,2.80
2017-07-15T07:59:27.498Z,2.60
2017-07-15T08:01:54.995Z,3.00
2017-07-15T08:04:22.418Z,2.93
2017-07-15T08:06:49.890Z,2.40
2017-07-15T08:09:17.399Z,2.73
2017-07-15T08:11:44.895Z,2.97
2017-07-15T08:14:12.319Z,3.73
2017-07-15T08:16:40.334Z,3.77
2017-07-15T08:19:08.701Z,3.37
2017-07-15T08:21:37.050Z,3.57
2017-07-15T08:24:04.535Z,4.20
2017-07-15T08:26:34.514Z,4.10
2017-07-15T08:29:02.927Z,4.27
2017-07-15T08:31:30.446Z,4.70
2017-07-15T08:33:57.874Z,4.90
2017-07-15T08:36:38.779Z,4.17
2017-07-15T08:39:22.402Z,3.70
2017-07-15T08:41:49.926Z,3.40
2017-07-15T08:44:17.354Z,3.50
2017-07-15T08:46:44.915Z,4.63
2017-07-15T08:49:12.414Z,3.70
2017-07-15T08:51:39.888Z,4.47
2017-07-15T08:54:07.344Z,4.60
2017-07-15T08:56:34.843Z,4.13
2017-07-15T08:59:02.265Z,3.97
2017-07-15T09:01:29.758Z,9.63
2017-07-15T09:03:57.319Z,12.30
2017-07-15T09:06:24.725Z,11.97
2017-07-15T09:08:52.210Z,10.07
2017-07-15T09:11:24.343Z,9.87
2017-07-15T09:15:11.987Z,7.50
2017-07-15T09:17:56.176Z,5.17
2017-07-15T09:57:40.763Z,9.13
2017-07-15T11:12:57.402Z,7.33
2017-07-15T11:15:25.785Z,8.40
2017-07-15T11:17:54.208Z,8.60
2017-07-15T11:20:22.673Z,8.23
2017-07-15T11:22:51.034Z,7.60
2017-07-15T11:25:19.455Z,7.70
2017-07-15T11:27:48.038Z,8.47
2017-07-15T11:30:16.453Z,8.60
2017-07-15T11:32:44.838Z,8.40
2017-07-15T11:35:13.255Z,8.17
2017-07-15T11:37:41.676Z,8.40
2017-07-15T11:40:10.117Z,7.80
2017-07-15T11:42:38.610Z,7.60
2017-07-15T11:45:07.095Z,7.30
2017-07-15T11:47:35.559Z,7.40
2017-07-15T11:50:04.457Z,7.70
2017-07-15T13:52:42.748Z,7.50
2017-07-15T13:55:10.418Z,8.30
2017-07-15T13:57:37.891Z,7.40
2017-07-15T14:00:05.361Z,7.87
2017-07-15T14:02:32.856Z,7.90
2017-07-15T14:05:00.260Z,8.60
2017-07-15T14:07:27.707Z,7.83
2017-07-15T14:09:55.121Z,8.27
2017-07-15T14:12:22.619Z,9.00
2017-07-15T14:14:50.081Z,8.30
2017-07-15T14:17:17.625Z,9.20
2017-07-15T14:19:45.026Z,8.80
2017-07-15T14:22:12.481Z,8.83
2017-07-15T14:24:39.881Z,8.50
2017-07-15T14:27:07.359Z,8.60
2017-07-15T14:29:34.893Z,8.43
2017-07-15T14:32:02.354Z,9.17
2017-07-15T14:34:29.803Z,7.77
2017-07-15T14:36:57.296Z,8.23
2017-07-15T14:39:24.746Z,8.60
2017-07-15T14:41:52.223Z,9.10
2017-07-15T14:44:19.685Z,8.60
2017-07-15T14:46:47.110Z,7.83
2017-07-15T14:49:14.541Z,8.50
2017-07-15T14:51:42.034Z,9.33
2017-07-15T14:54:09.468Z,8.87
2017-07-15T14:56:36.943Z,7.97
2017-07-15T14:59:04.468Z,8.80
2017-07-15T15:01:31.862Z,8.10
2017-07-15T15:03:59.340Z,9.10
2017-07-15T15:06:26.818Z,8.20
2017-07-15T15:08:54.246Z,8.33
2017-07-15T15:11:21.738Z,8.40
2017-07-15T15:13:49.214Z,8.93
2017-07-15T15:16:16.637Z,9.13
2017-07-15T15:18:44.097Z,9.30
2017-07-15T15:21:11.562Z,8.63
2017-07-15T15:23:39.001Z,9.23
2017-07-15T15:26:06.487Z,9.30
2017-07-15T15:28:33.923Z,8.80
2017-07-15T15:31:01.412Z,9.60
2017-07-15T15:33:28.976Z,9.20
2017-07-15T15:35:56.414Z,8.73
2017-07-15T15:38:23.896Z,9.40
2017-07-15T15:40:51.310Z,10.43
2017-07-15T15:43:18.811Z,10.03
2017-07-15T15:45:46.447Z,9.77
2017-07-15T15:48:13.859Z,9.70
2017-07-15T15:50:41.471Z,10.30
2017-07-15T15:53:08.888Z,9.43
2017-07-15T15:55:36.413Z,9.73
2017-07-15T15:58:03.867Z,9.10
2017-07-15T16:00:31.305Z,10.27
2017-07-15T16:02:58.713Z,9.90
2017-07-15T16:05:26.308Z,10.10
2017-07-15T16:07:53.760Z,9.10
2017-07-15T16:10:21.212Z,9.90
2017-07-15T16:12:48.679Z,9.97
2017-07-15T16:15:16.142Z,9.80
2017-07-15T16:17:43.624Z,10.27
2017-07-15T16:20:11.075Z,9.63
2017-07-15T16:22:38.499Z,9.83
2017-07-15T16:25:06.069Z,10.00
2017-07-15T16:27:33.581Z,9.73
2017-07-15T16:30:00.998Z,10.00
2017-07-15T16:32:28.477Z,9.57
2017-07-15T16:34:55.981Z,9.70
2017-07-15T16:37:24.286Z,9.77
2017-07-15T16:39:51.726Z,9.80
2017-07-15T16:42:19.194Z,9.17
2017-07-15T16:44:46.661Z,10.10
2017-07-15T16:47:14.111Z,9.57
2017-07-15T16:49:41.619Z,10.37
2017-07-15T16:52:09.050Z,10.30
2017-07-15T16:54:36.491Z,10.30
2017-07-15T16:57:03.958Z,9.80
2017-07-15T16:59:31.447Z,10.90
2017-07-15T17:01:58.955Z,10.90
2017-07-15T17:04:26.429Z,10.83
2017-07-15T17:06:53.862Z,11.03
2017-07-15T17:09:21.408Z,11.30
2017-07-15T17:11:48.909Z,11.40
2017-07-15T17:14:16.345Z,12.00
2017-07-15T17:16:43.799Z,11.93
2017-07-15T17:19:11.252Z,12.00
2017-07-15T17:21:38.723Z,12.00
2017-07-15T17:24:06.150Z,10.90
2017-07-15T17:26:33.703Z,11.30
2017-07-15T17:29:01.271Z,10.70
2017-07-15T17:31:28.689Z,11.57
2017-07-15T17:33:56.182Z,10.80
2017-07-15T17:36:23.673Z,10.60
2017-07-15T17:38:51.125Z,10.03
2017-07-15T17:41:18.619Z,10.70
2017-07-15T17:43:46.083Z,11.13
2017-07-15T17:46:13.668Z,10.87
2017-07-15T17:48:41.122Z,10.83
2017-07-15T17:51:08.684Z,11.70
2017-07-15T17:53:36.183Z,11.57
2017-07-15T17:56:03.634Z,11.20
2017-07-15T17:58:31.096Z,10.90
2017-07-15T18:00:58.514Z,11.47
2017-07-15T18:03:25.998Z,10.83
2017-07-15T18:05:53.406Z,11.93
2017-07-15T18:08:20.865Z,12.30
2017-07-15T18:10:48.425Z,12.40
2017-07-15T18:13:15.854Z,11.80
2017-07-15T18:15:43.297Z,11.27
2017-07-15T18:18:10.910Z,13.53
2017-07-15T18:20:38.419Z,13.70
2017-07-15T18:23:05.823Z,13.97
2017-07-15T18:25:33.338Z,15.30
2017-07-15T18:28:00.841Z,15.00
2017-07-15T18:30:28.402Z,15.33
2017-07-15T18:32:55.865Z,16.10
2017-07-15T18:35:23.362Z,15.03
2017-07-15T18:37:50.785Z,16.33
2017-07-15T18:40:18.270Z,15.13
2017-07-15T18:42:45.727Z,15.47
2017-07-15T18:45:13.151Z,15.67
2017-07-15T18:47:40.838Z,16.73
2017-07-15T18:50:08.287Z,17.43
2017-07-15T18:52:35.808Z,18.67
2017-07-15T18:55:03.298Z,18.50
2017-07-15T18:57:30.791Z,17.73
2017-07-15T18:59:58.391Z,19.77
2017-07-15T19:02:25.883Z,18.80
2017-07-15T19:04:54.258Z,18.53
2017-07-15T19:07:21.770Z,18.80
2017-07-15T19:09:49.310Z,17.47
2017-07-15T19:12:16.771Z,16.90
2017-07-15T19:14:45.098Z,17.63
2017-07-15T19:17:12.626Z,17.30
2017-07-15T19:19:40.070Z,16.27
2017-07-15T19:22:07.488Z,18.20
2017-07-15T19:24:35.026Z,18.20
2017-07-15T19:27:02.517Z,17.10
2017-07-15T19:29:29.973Z,17.60
2017-07-15T19:31:57.459Z,15.83
2017-07-15T19:34:25.656Z,15.87
2017-07-15T19:36:53.132Z,15.20
2017-07-15T19:39:20.579Z,14.53
2017-07-15T19:41:48.080Z,14.20
2017-07-15T19:44:18.447Z,15.70
2017-07-15T19:46:47.864Z,15.03
2017-07-15T19:49:15.335Z,14.33
2017-07-15T19:51:42.792Z,15.03
2017-07-15T19:54:10.435Z,15.40
2017-07-15T19:56:38.027Z,13.93
2017-07-15T21:21:03.334Z,9.17
2017-07-15T21:23:30.865Z,8.73
2017-07-15T21:25:58.284Z,8.87
2017-07-15T21:28:25.777Z,9.10
2017-07-15T21:30:53.206Z,9.73
2017-07-15T21:33:20.686Z,9.63
2017-07-15T21:35:48.175Z,10.27
2017-07-15T21:38:15.668Z,9.63
2017-07-15T21:40:43.134Z,9.37
2017-07-15T21:43:10.586Z,10.10
2017-07-15T21:45:38.087Z,9.93
2017-07-15T21:48:05.490Z,9.60
2017-07-15T21:50:33.294Z,9.23
2017-07-15T21:53:00.717Z,9.20
2017-07-15T21:55:28.142Z,9.13
2017-07-15T21:57:55.684Z,9.17
2017-07-15T22:00:23.148Z,8.40
2017-07-15T22:02:50.607Z,8.23
2017-07-15T22:05:18.076Z,8.60
2017-07-15T22:07:45.544Z,7.70
2017-07-15T22:10:13.014Z,7.60
2017-07-15T22:12:40.492Z,8.17
2017-07-15T22:15:08.870Z,7.10
2017-07-15T22:17:36.269Z,7.10
2017-07-15T22:20:03.729Z,7.73
2017-07-15T22:22:31.212Z,7.03
2017-07-15T22:24:58.687Z,7.93
2017-07-15T22:27:26.134Z,7.10
2017-07-15T22:29:53.609Z,6.07
2017-07-15T22:32:21.083Z,7.20
2017-07-15T22:34:48.802Z,6.50
2017-07-15T22:37:16.251Z,6.33
2017-07-15T22:39:43.656Z,6.33
2017-07-15T22:42:12.108Z,6.60
2017-07-15T22:44:39.574Z,6.60
2017-07-15T22:47:06.974Z,6.90
2017-07-15T22:49:34.490Z,6.60
2017-07-15T22:52:01.972Z,6.30
2017-07-15T22:54:29.362Z,6.17
2017-07-15T22:56:56.876Z,6.43
2017-07-15T22:59:24.352Z,6.67
2017-07-15T23:01:51.746Z,6.50
2017-07-15T23:04:19.957Z,6.90
2017-07-15T23:06:47.372Z,7.43
2017-07-15T23:09:14.836Z,8.63
2017-07-15T23:11:42.344Z,8.53
2017-07-15T23:14:09.776Z,8.37
2017-07-15T23:16:37.230Z,8.23
2017-07-15T23:19:04.712Z,8.90
2017-07-15T23:21:32.186Z,8.53
2017-07-15T23:23:59.574Z,8.90
2017-07-15T23:26:27.096Z,9.03
2017-07-15T23:28:54.575Z,9.30
2017-07-15T23:31:21.982Z,8.60
2017-07-15T23:33:49.442Z,8.73
2017-07-15T23:36:16.850Z,8.03
2017-07-15T23:38:44.319Z,9.10
2017-07-15T23:41:11.751Z,8.80
2017-07-15T23:43:39.171Z,9.10
2017-07-15T23:46:06.580Z,8.03
2017-07-15T23:48:34.018Z,8.23
2017-07-15T23:51:01.491Z,8.00
2017-07-15T23:53:28.899Z,7.70
2017-07-15T23:55:56.344Z,7.87
2017-07-15T23:58:23.762Z,8.07
